sensor_id;sensor_type;location;lat;lon;timestamp;P1;durP1;ratioP1;P2;durP2;ratioP2
20486;SDS011;10402;49.012;8.370;2023-12-04T00:00:00;45.40;;;43.97;;
20486;SDS011;10402;49.012;8.370;2023-12-04T00:02:28;41.33;;;40.08;;
20486;SDS011;10402;49.012;8.370;2023-12-04T00:04:53;31.50;;;30.57;;
20486;SDS011;10402;49.012;8.370;2023-12-04T00:07:19;26.40;;;25.60;;
20486;SDS011;10402;49.012;8.370;2023-12-04T00:09:44;22.50;;;21.83;;
20486;SDS011;10402;49.012;8.370;2023-12-04T00:12:10;20.10;;;19.53;;
20486;SDS011;10402;49.012;8.370;2023-12-04T00:14:35;21.70;;;21.07;;
20486;SDS011;10402;49.012;8.370;2023-12-04T00:17:01;21.17;;;20.53;;
20486;SDS011;10402;49.012;8.370;2023-12-04T00:19:26;21.33;;;20.70;;
20486;SDS011;10402;49.012;8.370;2023-12-04T00:21:52;21.53;;;20.90;;
20486;SDS011;10402;49.012;8.370;2023-12-04T00:24:18;19.57;;;19.00;;
20486;SDS011;10402;49.012;8.370;2023-12-04T00:26:43;20.73;;;20.13;;
20486;SDS011;10402;49.012;8.370;2023-12-04T00:29:09;21.23;;;20.63;;
20486;SDS011;10402;49.012;8.370;2023-12-04T00:31:34;22.83;;;22.13;;
20486;SDS011;10402;49.012;8.370;2023-12-04T00:34:00;23.07;;;22.37;;
20486;SDS011;10402;49.012;8.370;2023-12-04T00:36:25;21.00;;;20.40;;
20486;SDS011;10402;49.012;8.370;2023-12-04T00:38:51;23.23;;;22.53;;
20486;SDS011;10402;49.012;8.370;2023-12-04T00:41:16;22.27;;;21.57;;
20486;SDS011;10402;49.012;8.370;2023-12-04T00:43:42;25.37;;;24.57;;
20486;SDS011;10402;49.012;8.370;2023-12-04T00:46:08;24.90;;;24.10;;
20486;SDS011;10402;49.012;8.370;2023-12-04T00:48:33;24.33;;;23.57;;
20486;SDS011;10402;49.012;8.370;2023-12-04T00:50:59;23.70;;;23.00;;
20486;SDS011;10402;49.012;8.370;2023-12-04T00:53:24;25.20;;;24.40;;
20486;SDS011;10402;49.012;8.370;2023-12-04T00:55:50;27.40;;;26.50;;
20486;SDS011;10402;49.012;8.370;2023-12-04T00:58:15;28.70;;;27.80;;
20486;SDS011;10402;49.012;8.370;2023-12-04T01:00:41;23.33;;;22.63;;
20486;SDS011;10402;49.012;8.370;2023-12-04T01:03:06;25.53;;;24.67;;
20486;SDS011;10402;49.012;8.370;2023-12-04T01:05:32;24.87;;;24.07;;
20486;SDS011;10402;49.012;8.370;2023-12-04T01:07:57;26.97;;;26.10;;
20486;SDS011;10402;49.012;8.370;2023-12-04T01:10:23;26.23;;;25.40;;
20486;SDS011;10402;49.012;8.370;2023-12-04T01:12:49;23.50;;;22.73;;
20486;SDS011;10402;49.012;8.370;2023-12-04T01:15:14;30.17;;;29.17;;
20486;SDS011;10402;49.012;8.370;2023-12-04T01:17:40;25.67;;;24.80;;
20486;SDS011;10402;49.012;8.370;2023-12-04T01:20:05;29.50;;;28.50;;
20486;SDS011;10402;49.012;8.370;2023-12-04T01:22:31;29.70;;;28.70;;
20486;SDS011;10402;49.012;8.370;2023-12-04T01:24:57;33.07;;;31.93;;
20486;SDS011;10402;49.012;8.370;2023-12-04T01:27:22;31.13;;;30.07;;
20486;SDS011;10402;49.012;8.370;2023-12-04T01:29:48;32.97;;;31.83;;
20486;SDS011;10402;49.012;8.370;2023-12-04T01:32:14;33.97;;;32.80;;
20486;SDS011;10402;49.012;8.370;2023-12-04T01:34:39;42.40;;;40.83;;
20486;SDS011;10402;49.012;8.370;2023-12-04T01:37:05;35.83;;;34.60;;
20486;SDS011;10402;49.012;8.370;2023-12-04T01:39:30;38.90;;;37.50;;
20486;SDS011;10402;49.012;8.370;2023-12-04T01:41:56;34.13;;;32.97;;
20486;SDS011;10402;49.012;8.370;2023-12-04T01:44:21;33.20;;;32.03;;
20486;SDS011;10402;49.012;8.370;2023-12-04T01:46:47;35.67;;;34.43;;
20486;SDS011;10402;49.012;8.370;2023-12-04T01:49:13;38.07;;;36.73;;
20486;SDS011;10402;49.012;8.370;2023-12-04T01:51:39;37.22;;;35.90;;
20486;SDS011;10402;49.012;8.370;2023-12-04T01:54:05;40.80;;;39.30;;
20486;SDS011;10402;49.012;8.370;2023-12-04T01:56:32;43.45;;;41.88;;
20486;SDS011;10402;49.012;8.370;2023-12-04T01:58:59;41.65;;;40.17;;
20486;SDS011;10402;49.012;8.370;2023-12-04T02:01:25;43.77;;;42.17;;
20486;SDS011;10402;49.012;8.370;2023-12-04T02:03:52;41.03;;;39.55;;
20486;SDS011;10402;49.012;8.370;2023-12-04T02:06:19;42.40;;;40.85;;
20486;SDS011;10402;49.012;8.370;2023-12-04T02:08:46;40.87;;;39.40;;
20486;SDS011;10402;49.012;8.370;2023-12-04T02:11:12;49.42;;;47.63;;
20486;SDS011;10402;49.012;8.370;2023-12-04T02:13:38;44.73;;;43.13;;
20486;SDS011;10402;49.012;8.370;2023-12-04T02:16:04;44.58;;;42.97;;
20486;SDS011;10402;49.012;8.370;2023-12-04T02:18:33;40.70;;;39.17;;
20486;SDS011;10402;49.012;8.370;2023-12-04T02:21:02;40.05;;;38.65;;
20486;SDS011;10402;49.012;8.370;2023-12-04T02:23:28;42.60;;;41.05;;
20486;SDS011;10402;49.012;8.370;2023-12-04T02:25:54;41.10;;;39.63;;
20486;SDS011;10402;49.012;8.370;2023-12-04T02:28:24;44.85;;;43.28;;
20486;SDS011;10402;49.012;8.370;2023-12-04T02:30:52;44.25;;;42.63;;
20486;SDS011;10402;49.012;8.370;2023-12-04T02:33:18;39.38;;;37.97;;
20486;SDS011;10402;49.012;8.370;2023-12-04T02:35:49;38.22;;;36.88;;
20486;SDS011;10402;49.012;8.370;2023-12-04T02:38:16;51.05;;;49.22;;
20486;SDS011;10402;49.012;8.370;2023-12-04T02:40:41;47.30;;;45.57;;
20486;SDS011;10402;49.012;8.370;2023-12-04T02:43:07;41.10;;;39.63;;
20486;SDS011;10402;49.012;8.370;2023-12-04T02:45:32;42.03;;;40.57;;
20486;SDS011;10402;49.012;8.370;2023-12-04T02:47:58;43.73;;;42.17;;
20486;SDS011;10402;49.012;8.370;2023-12-04T02:50:23;34.30;;;33.13;;
20486;SDS011;10402;49.012;8.370;2023-12-04T02:52:49;29.23;;;28.27;;
20486;SDS011;10402;49.012;8.370;2023-12-04T02:55:14;39.70;;;38.33;;
20486;SDS011;10402;49.012;8.370;2023-12-04T02:57:40;40.10;;;38.70;;
20486;SDS011;10402;49.012;8.370;2023-12-04T03:00:06;35.57;;;34.30;;
20486;SDS011;10402;49.012;8.370;2023-12-04T03:02:32;36.22;;;34.97;;
20486;SDS011;10402;49.012;8.370;2023-12-04T03:04:57;36.53;;;35.30;;
20486;SDS011;10402;49.012;8.370;2023-12-04T03:07:23;35.43;;;34.23;;
20486;SDS011;10402;49.012;8.370;2023-12-04T03:09:49;36.30;;;35.03;;
20486;SDS011;10402;49.012;8.370;2023-12-04T03:12:15;39.30;;;37.93;;
20486;SDS011;10402;49.012;8.370;2023-12-04T03:14:41;40.40;;;39.03;;
20486;SDS011;10402;49.012;8.370;2023-12-04T03:17:07;37.57;;;36.27;;
20486;SDS011;10402;49.012;8.370;2023-12-04T03:19:32;37.57;;;36.30;;
20486;SDS011;10402;49.012;8.370;2023-12-04T03:21:58;42.90;;;41.40;;
20486;SDS011;10402;49.012;8.370;2023-12-04T03:24:24;36.40;;;35.13;;
20486;SDS011;10402;49.012;8.370;2023-12-04T03:26:50;36.57;;;35.30;;
20486;SDS011;10402;49.012;8.370;2023-12-04T03:29:15;38.63;;;37.33;;
20486;SDS011;10402;49.012;8.370;2023-12-04T03:31:41;36.87;;;35.63;;
20486;SDS011;10402;49.012;8.370;2023-12-04T03:34:06;32.33;;;31.20;;
20486;SDS011;10402;49.012;8.370;2023-12-04T03:36:32;39.37;;;37.93;;
20486;SDS011;10402;49.012;8.370;2023-12-04T03:38:57;41.93;;;40.47;;
20486;SDS011;10402;49.012;8.370;2023-12-04T03:41:23;40.10;;;38.70;;
20486;SDS011;10402;49.012;8.370;2023-12-04T03:43:48;39.47;;;38.13;;
20486;SDS011;10402;49.012;8.370;2023-12-04T03:46:14;37.57;;;36.30;;
20486;SDS011;10402;49.012;8.370;2023-12-04T03:48:39;42.03;;;40.57;;
20486;SDS011;10402;49.012;8.370;2023-12-04T03:51:05;46.90;;;45.23;;
20486;SDS011;10402;49.012;8.370;2023-12-04T03:53:31;35.90;;;34.70;;
20486;SDS011;10402;49.012;8.370;2023-12-04T03:56:00;39.57;;;38.17;;
20486;SDS011;10402;49.012;8.370;2023-12-04T03:58:25;28.60;;;27.70;;
20486;SDS011;10402;49.012;8.370;2023-12-04T04:00:51;25.17;;;24.37;;
20486;SDS011;10402;49.012;8.370;2023-12-04T04:03:16;20.97;;;20.37;;
20486;SDS011;10402;49.012;8.370;2023-12-04T04:05:42;22.07;;;21.37;;
20486;SDS011;10402;49.012;8.370;2023-12-04T04:08:07;19.80;;;19.20;;
20486;SDS011;10402;49.012;8.370;2023-12-04T04:10:33;21.47;;;20.83;;
20486;SDS011;10402;49.012;8.370;2023-12-04T04:12:59;24.08;;;23.35;;
20486;SDS011;10402;49.012;8.370;2023-12-04T04:15:25;27.57;;;26.70;;
20486;SDS011;10402;49.012;8.370;2023-12-04T04:17:51;32.00;;;31.00;;
20486;SDS011;10402;49.012;8.370;2023-12-04T04:20:17;39.73;;;38.50;;
20486;SDS011;10402;49.012;8.370;2023-12-04T04:22:42;42.70;;;41.33;;
20486;SDS011;10402;49.012;8.370;2023-12-04T04:25:08;46.43;;;44.97;;
20486;SDS011;10402;49.012;8.370;2023-12-04T04:27:34;44.65;;;43.28;;
20486;SDS011;10402;49.012;8.370;2023-12-04T04:30:00;45.67;;;44.23;;
20486;SDS011;10402;49.012;8.370;2023-12-04T04:32:27;47.35;;;45.88;;
20486;SDS011;10402;49.012;8.370;2023-12-04T04:34:53;50.53;;;48.93;;
20486;SDS011;10402;49.012;8.370;2023-12-04T04:37:21;45.23;;;43.83;;
20486;SDS011;10402;49.012;8.370;2023-12-04T04:39:47;44.42;;;43.03;;
20486;SDS011;10402;49.012;8.370;2023-12-04T04:42:12;42.97;;;41.67;;
20486;SDS011;10402;49.012;8.370;2023-12-04T04:44:39;45.42;;;44.03;;
20486;SDS011;10402;49.012;8.370;2023-12-04T04:47:04;45.70;;;44.27;;
20486;SDS011;10402;49.012;8.370;2023-12-04T04:49:30;45.87;;;44.47;;
20486;SDS011;10402;49.012;8.370;2023-12-04T04:51:55;47.03;;;45.57;;
20486;SDS011;10402;49.012;8.370;2023-12-04T04:54:21;46.60;;;45.13;;
20486;SDS011;10402;49.012;8.370;2023-12-04T04:56:46;44.50;;;43.10;;
20486;SDS011;10402;49.012;8.370;2023-12-04T04:59:12;46.10;;;44.70;;
20486;SDS011;10402;49.012;8.370;2023-12-04T05:01:37;44.03;;;42.63;;
20486;SDS011;10402;49.012;8.370;2023-12-04T05:04:03;47.93;;;46.33;;
20486;SDS011;10402;49.012;8.370;2023-12-04T05:06:28;47.30;;;45.80;;
20486;SDS011;10402;49.012;8.370;2023-12-04T05:08:55;48.20;;;46.70;;
20486;SDS011;10402;49.012;8.370;2023-12-04T05:11:21;42.30;;;41.00;;
20486;SDS011;10402;49.012;8.370;2023-12-04T05:13:47;49.23;;;47.67;;
20486;SDS011;10402;49.012;8.370;2023-12-04T05:16:13;46.07;;;44.60;;
20486;SDS011;10402;49.012;8.370;2023-12-04T05:18:38;52.60;;;50.93;;
20486;SDS011;10402;49.012;8.370;2023-12-04T05:21:13;48.00;;;46.50;;
20486;SDS011;10402;49.012;8.370;2023-12-04T05:23:38;46.22;;;44.75;;
20486;SDS011;10402;49.012;8.370;2023-12-04T05:26:04;50.03;;;48.47;;
20486;SDS011;10402;49.012;8.370;2023-12-04T05:28:31;46.72;;;45.28;;
20486;SDS011;10402;49.012;8.370;2023-12-04T05:31:04;40.80;;;39.50;;
20486;SDS011;10402;49.012;8.370;2023-12-04T05:33:40;39.30;;;38.10;;
20486;SDS011;10402;49.012;8.370;2023-12-04T05:36:05;41.07;;;39.77;;
20486;SDS011;10402;49.012;8.370;2023-12-04T05:38:31;37.30;;;36.15;;
20486;SDS011;10402;49.012;8.370;2023-12-04T05:40:57;30.97;;;30.00;;
20486;SDS011;10402;49.012;8.370;2023-12-04T05:43:22;29.73;;;28.83;;
20486;SDS011;10402;49.012;8.370;2023-12-04T05:45:48;30.17;;;29.23;;
20486;SDS011;10402;49.012;8.370;2023-12-04T05:48:14;29.63;;;28.77;;
20486;SDS011;10402;49.012;8.370;2023-12-04T05:50:39;28.83;;;27.97;;
20486;SDS011;10402;49.012;8.370;2023-12-04T05:53:06;28.00;;;27.17;;
20486;SDS011;10402;49.012;8.370;2023-12-04T05:55:32;26.92;;;26.13;;
20486;SDS011;10402;49.012;8.370;2023-12-04T05:57:58;24.03;;;23.30;;
20486;SDS011;10402;49.012;8.370;2023-12-04T06:00:23;23.87;;;23.17;;
20486;SDS011;10402;49.012;8.370;2023-12-04T06:02:49;22.10;;;21.43;;
20486;SDS011;10402;49.012;8.370;2023-12-04T06:05:14;20.40;;;19.80;;
20486;SDS011;10402;49.012;8.370;2023-12-04T06:07:40;25.97;;;25.17;;
20486;SDS011;10402;49.012;8.370;2023-12-04T06:10:06;25.90;;;25.10;;
20486;SDS011;10402;49.012;8.370;2023-12-04T06:12:33;30.10;;;29.15;;
20486;SDS011;10402;49.012;8.370;2023-12-04T06:14:59;32.30;;;31.30;;
20486;SDS011;10402;49.012;8.370;2023-12-04T06:17:25;31.77;;;30.77;;
20486;SDS011;10402;49.012;8.370;2023-12-04T06:19:51;29.55;;;28.65;;
20486;SDS011;10402;49.012;8.370;2023-12-04T06:22:16;27.93;;;27.03;;
20486;SDS011;10402;49.012;8.370;2023-12-04T06:24:45;32.03;;;31.02;;
20486;SDS011;10402;49.012;8.370;2023-12-04T06:27:12;28.67;;;27.77;;
20486;SDS011;10402;49.012;8.370;2023-12-04T06:29:41;27.25;;;26.35;;
20486;SDS011;10402;49.012;8.370;2023-12-04T06:32:08;30.95;;;29.95;;
20486;SDS011;10402;49.012;8.370;2023-12-04T06:34:34;29.88;;;28.95;;
20486;SDS011;10402;49.012;8.370;2023-12-04T06:37:01;26.90;;;26.10;;
20486;SDS011;10402;49.012;8.370;2023-12-04T06:39:29;25.20;;;24.42;;
20486;SDS011;10402;49.012;8.370;2023-12-04T06:41:57;27.02;;;26.23;;
20486;SDS011;10402;49.012;8.370;2023-12-04T06:44:23;31.58;;;30.58;;
20486;SDS011;10402;49.012;8.370;2023-12-04T06:46:49;26.47;;;25.67;;
20486;SDS011;10402;49.012;8.370;2023-12-04T06:49:17;27.83;;;26.92;;
20486;SDS011;10402;49.012;8.370;2023-12-04T06:51:43;28.50;;;27.60;;
20486;SDS011;10402;49.012;8.370;2023-12-04T06:54:09;32.40;;;31.40;;
20486;SDS011;10402;49.012;8.370;2023-12-04T06:56:36;35.95;;;34.75;;
20486;SDS011;10402;49.012;8.370;2023-12-04T06:59:01;40.23;;;38.83;;
20486;SDS011;10402;49.012;8.370;2023-12-04T07:01:26;41.33;;;39.93;;
20486;SDS011;10402;49.012;8.370;2023-12-04T07:03:52;47.60;;;46.07;;
20486;SDS011;10402;49.012;8.370;2023-12-04T07:06:18;52.50;;;50.73;;
20486;SDS011;10402;49.012;8.370;2023-12-04T07:08:43;72.27;;;69.80;;
20486;SDS011;10402;49.012;8.370;2023-12-04T07:11:09;61.93;;;59.80;;
20486;SDS011;10402;49.012;8.370;2023-12-04T07:13:35;70.33;;;67.93;;
20486;SDS011;10402;49.012;8.370;2023-12-04T07:16:00;63.10;;;60.97;;
20486;SDS011;10402;49.012;8.370;2023-12-04T07:18:26;71.17;;;68.67;;
20486;SDS011;10402;49.012;8.370;2023-12-04T07:20:51;68.30;;;65.93;;
20486;SDS011;10402;49.012;8.370;2023-12-04T07:23:17;65.63;;;63.43;;
20486;SDS011;10402;49.012;8.370;2023-12-04T07:25:42;62.07;;;59.93;;
20486;SDS011;10402;49.012;8.370;2023-12-04T07:28:08;57.50;;;55.53;;
20486;SDS011;10402;49.012;8.370;2023-12-04T07:30:34;52.30;;;50.50;;
20486;SDS011;10402;49.012;8.370;2023-12-04T07:32:59;46.97;;;45.37;;
20486;SDS011;10402;49.012;8.370;2023-12-04T07:35:25;39.63;;;38.33;;
20486;SDS011;10402;49.012;8.370;2023-12-04T07:37:51;38.50;;;37.30;;
20486;SDS011;10402;49.012;8.370;2023-12-04T07:40:17;34.65;;;33.55;;
20486;SDS011;10402;49.012;8.370;2023-12-04T07:42:43;31.80;;;30.80;;
20486;SDS011;10402;49.012;8.370;2023-12-04T07:45:08;25.50;;;24.70;;
20486;SDS011;10402;49.012;8.370;2023-12-04T07:47:35;24.92;;;24.13;;
20486;SDS011;10402;49.012;8.370;2023-12-04T07:50:01;18.60;;;18.07;;
20486;SDS011;10402;49.012;8.370;2023-12-04T07:52:26;16.87;;;16.37;;
20486;SDS011;10402;49.012;8.370;2023-12-04T07:54:52;17.30;;;16.80;;
20486;SDS011;10402;49.012;8.370;2023-12-04T07:57:18;16.43;;;15.93;;
20486;SDS011;10402;49.012;8.370;2023-12-04T07:59:43;18.35;;;17.83;;
20486;SDS011;10402;49.012;8.370;2023-12-04T08:02:09;18.13;;;17.60;;
20486;SDS011;10402;49.012;8.370;2023-12-04T08:04:35;18.10;;;17.57;;
20486;SDS011;10402;49.012;8.370;2023-12-04T08:07:01;17.83;;;17.33;;
20486;SDS011;10402;49.012;8.370;2023-12-04T08:09:27;16.95;;;16.48;;
20486;SDS011;10402;49.012;8.370;2023-12-04T08:11:52;18.07;;;17.53;;
20486;SDS011;10402;49.012;8.370;2023-12-04T08:14:18;16.23;;;15.77;;
20486;SDS011;10402;49.012;8.370;2023-12-04T08:16:43;19.33;;;18.77;;
20486;SDS011;10402;49.012;8.370;2023-12-04T08:19:09;19.37;;;18.80;;
20486;SDS011;10402;49.012;8.370;2023-12-04T08:21:34;18.67;;;18.13;;
20486;SDS011;10402;49.012;8.370;2023-12-04T08:24:00;16.37;;;15.90;;
20486;SDS011;10402;49.012;8.370;2023-12-04T08:26:26;19.00;;;18.43;;
20486;SDS011;10402;49.012;8.370;2023-12-04T08:28:52;16.67;;;16.20;;
20486;SDS011;10402;49.012;8.370;2023-12-04T08:31:17;16.52;;;16.05;;
20486;SDS011;10402;49.012;8.370;2023-12-04T08:33:43;15.87;;;15.43;;
20486;SDS011;10402;49.012;8.370;2023-12-04T08:36:10;16.23;;;15.77;;
20486;SDS011;10402;49.012;8.370;2023-12-04T08:38:36;15.85;;;15.40;;
20486;SDS011;10402;49.012;8.370;2023-12-04T08:41:02;18.33;;;17.80;;
20486;SDS011;10402;49.012;8.370;2023-12-04T08:43:28;21.77;;;21.13;;
20486;SDS011;10402;49.012;8.370;2023-12-04T08:45:54;27.30;;;26.50;;
20486;SDS011;10402;49.012;8.370;2023-12-04T08:48:20;31.90;;;30.90;;
20486;SDS011;10402;49.012;8.370;2023-12-04T08:50:45;38.83;;;37.60;;
20486;SDS011;10402;49.012;8.370;2023-12-04T08:53:11;40.43;;;39.17;;
20486;SDS011;10402;49.012;8.370;2023-12-04T08:55:37;40.07;;;38.87;;
20486;SDS011;10402;49.012;8.370;2023-12-04T08:58:02;38.70;;;37.50;;
20486;SDS011;10402;49.012;8.370;2023-12-04T09:00:28;36.22;;;35.13;;
20486;SDS011;10402;49.012;8.370;2023-12-04T09:02:54;37.70;;;36.53;;
20486;SDS011;10402;49.012;8.370;2023-12-04T09:05:20;36.00;;;34.90;;
20486;SDS011;10402;49.012;8.370;2023-12-04T09:07:46;35.07;;;34.00;;
20486;SDS011;10402;49.012;8.370;2023-12-04T09:10:11;34.93;;;33.87;;
20486;SDS011;10402;49.012;8.370;2023-12-04T09:12:37;32.63;;;31.63;;
20486;SDS011;10402;49.012;8.370;2023-12-04T09:15:03;27.87;;;27.07;;
20486;SDS011;10402;49.012;8.370;2023-12-04T09:17:30;26.02;;;25.23;;
20486;SDS011;10402;49.012;8.370;2023-12-04T09:19:55;27.90;;;27.10;;
20486;SDS011;10402;49.012;8.370;2023-12-04T09:22:21;23.30;;;22.60;;
20486;SDS011;10402;49.012;8.370;2023-12-04T09:24:46;22.93;;;22.23;;
20486;SDS011;10402;49.012;8.370;2023-12-04T09:27:12;23.33;;;22.63;;
20486;SDS011;10402;49.012;8.370;2023-12-04T09:29:37;24.30;;;23.57;;
20486;SDS011;10402;49.012;8.370;2023-12-04T09:32:03;27.37;;;26.53;;
20486;SDS011;10402;49.012;8.370;2023-12-04T09:34:29;32.67;;;31.67;;
20486;SDS011;10402;49.012;8.370;2023-12-04T09:36:54;35.03;;;33.93;;
20486;SDS011;10402;49.012;8.370;2023-12-04T09:39:20;33.67;;;32.67;;
20486;SDS011;10402;49.012;8.370;2023-12-04T09:41:45;38.43;;;37.23;;
20486;SDS011;10402;49.012;8.370;2023-12-04T09:44:12;33.63;;;32.60;;
20486;SDS011;10402;49.012;8.370;2023-12-04T09:46:37;37.90;;;36.70;;
20486;SDS011;10402;49.012;8.370;2023-12-04T09:49:04;37.83;;;36.67;;
20486;SDS011;10402;49.012;8.370;2023-12-04T09:51:30;43.10;;;41.75;;
20486;SDS011;10402;49.012;8.370;2023-12-04T09:53:55;44.77;;;43.37;;
20486;SDS011;10402;49.012;8.370;2023-12-04T09:56:24;41.13;;;39.85;;
20486;SDS011;10402;49.012;8.370;2023-12-04T09:58:56;53.10;;;51.40;;
20486;SDS011;10402;49.012;8.370;2023-12-04T10:01:24;54.80;;;53.03;;
20486;SDS011;10402;49.012;8.370;2023-12-04T10:03:51;63.92;;;61.80;;
20486;SDS011;10402;49.012;8.370;2023-12-04T10:06:16;67.37;;;65.17;;
20486;SDS011;10402;49.012;8.370;2023-12-04T10:08:42;65.27;;;63.13;;
20486;SDS011;10402;49.012;8.370;2023-12-04T10:11:09;73.95;;;71.50;;
20486;SDS011;10402;49.012;8.370;2023-12-04T10:13:35;77.57;;;74.97;;
20486;SDS011;10402;49.012;8.370;2023-12-04T10:16:01;85.00;;;82.13;;
20486;SDS011;10402;49.012;8.370;2023-12-04T10:18:29;85.85;;;83.00;;
20486;SDS011;10402;49.012;8.370;2023-12-04T10:20:56;93.32;;;90.22;;
20486;SDS011;10402;49.012;8.370;2023-12-04T10:23:23;93.03;;;89.93;;
20486;SDS011;10402;49.012;8.370;2023-12-04T10:26:02;94.75;;;91.60;;
20486;SDS011;10402;49.012;8.370;2023-12-04T10:28:27;101.43;;;98.07;;
20486;SDS011;10402;49.012;8.370;2023-12-04T10:30:53;97.43;;;94.20;;
20486;SDS011;10402;49.012;8.370;2023-12-04T10:33:19;90.22;;;87.20;;
20486;SDS011;10402;49.012;8.370;2023-12-04T10:35:46;74.93;;;72.47;;
20486;SDS011;10402;49.012;8.370;2023-12-04T10:38:12;72.33;;;69.90;;
20486;SDS011;10402;49.012;8.370;2023-12-04T10:40:39;66.72;;;64.53;;
20486;SDS011;10402;49.012;8.370;2023-12-04T10:45:37;57.88;;;55.95;;
20486;SDS011;10402;49.012;8.370;2023-12-04T10:48:05;55.47;;;53.65;;
20486;SDS011;10402;49.012;8.370;2023-12-04T10:50:32;61.63;;;59.60;;
20486;SDS011;10402;49.012;8.370;2023-12-04T10:52:59;61.85;;;59.85;;
20486;SDS011;10402;49.012;8.370;2023-12-04T10:55:32;57.53;;;55.67;;
20486;SDS011;10402;49.012;8.370;2023-12-04T10:58:02;59.22;;;57.33;;
20486;SDS011;10402;49.012;8.370;2023-12-04T11:00:30;60.05;;;58.13;;
20486;SDS011;10402;49.012;8.370;2023-12-04T11:03:01;54.78;;;53.03;;
20486;SDS011;10402;49.012;8.370;2023-12-04T11:05:49;50.85;;;49.22;;
20486;SDS011;10402;49.012;8.370;2023-12-04T11:08:24;57.85;;;56.00;;
20486;SDS011;10402;49.012;8.370;2023-12-04T11:10:57;57.35;;;55.50;;
20486;SDS011;10402;49.012;8.370;2023-12-04T11:13:27;56.63;;;54.80;;
20486;SDS011;10402;49.012;8.370;2023-12-04T11:15:56;55.67;;;53.90;;
20486;SDS011;10402;49.012;8.370;2023-12-04T11:18:43;56.55;;;54.72;;
20486;SDS011;10402;49.012;8.370;2023-12-04T11:21:13;67.13;;;64.97;;
20486;SDS011;10402;49.012;8.370;2023-12-04T11:23:38;61.63;;;59.67;;
20486;SDS011;10402;49.012;8.370;2023-12-04T11:26:05;63.25;;;61.22;;
20486;SDS011;10402;49.012;8.370;2023-12-04T11:28:32;71.63;;;69.32;;
20486;SDS011;10402;49.012;8.370;2023-12-04T11:30:59;77.43;;;74.93;;
20486;SDS011;10402;49.012;8.370;2023-12-04T11:33:26;78.70;;;76.18;;
20486;SDS011;10402;49.012;8.370;2023-12-04T11:35:51;77.00;;;74.57;;
20486;SDS011;10402;49.012;8.370;2023-12-04T11:38:17;85.10;;;82.37;;
20486;SDS011;10402;49.012;8.370;2023-12-04T11:40:43;87.60;;;84.80;;
20486;SDS011;10402;49.012;8.370;2023-12-04T11:43:26;94.10;;;91.05;;
20486;SDS011;10402;49.012;8.370;2023-12-04T11:45:53;82.75;;;80.13;;
20486;SDS011;10402;49.012;8.370;2023-12-04T11:48:31;69.47;;;67.22;;
20486;SDS011;10402;49.012;8.370;2023-12-04T11:50:57;77.80;;;75.33;;
20486;SDS011;10402;49.012;8.370;2023-12-04T11:53:23;75.97;;;73.57;;
20486;SDS011;10402;49.012;8.370;2023-12-04T11:55:48;83.07;;;80.43;;
20486;SDS011;10402;49.012;8.370;2023-12-04T11:58:15;75.57;;;73.20;;
20486;SDS011;10402;49.012;8.370;2023-12-04T12:00:41;85.88;;;83.13;;
20486;SDS011;10402;49.012;8.370;2023-12-04T12:03:08;81.50;;;78.88;;
20486;SDS011;10402;49.012;8.370;2023-12-04T12:05:35;85.68;;;82.88;;
20486;SDS011;10402;49.012;8.370;2023-12-04T12:08:03;95.80;;;92.68;;
20486;SDS011;10402;49.012;8.370;2023-12-04T12:10:30;102.93;;;99.47;;
20486;SDS011;10402;49.012;8.370;2023-12-04T12:12:56;113.30;;;109.43;;
20486;SDS011;10402;49.012;8.370;2023-12-04T12:15:22;113.97;;;110.07;;
20486;SDS011;10402;49.012;8.370;2023-12-04T12:17:47;131.30;;;126.80;;
20486;SDS011;10402;49.012;8.370;2023-12-04T12:20:16;152.43;;;147.00;;
20486;SDS011;10402;49.012;8.370;2023-12-04T12:22:41;144.43;;;139.33;;
20486;SDS011;10402;49.012;8.370;2023-12-04T12:25:11;147.05;;;141.77;;
20486;SDS011;10402;49.012;8.370;2023-12-04T12:27:37;143.40;;;138.43;;
20486;SDS011;10402;49.012;8.370;2023-12-04T12:30:03;149.65;;;144.38;;
20486;SDS011;10402;49.012;8.370;2023-12-04T12:32:33;144.38;;;139.20;;
20486;SDS011;10402;49.012;8.370;2023-12-04T12:34:59;125.78;;;121.32;;
20486;SDS011;10402;49.012;8.370;2023-12-04T12:37:25;124.97;;;120.53;;
20486;SDS011;10402;49.012;8.370;2023-12-04T12:39:51;122.37;;;118.03;;
20486;SDS011;10402;49.012;8.370;2023-12-04T12:42:29;122.00;;;117.63;;
20486;SDS011;10402;49.012;8.370;2023-12-04T12:44:55;118.60;;;114.35;;
20486;SDS011;10402;49.012;8.370;2023-12-04T12:47:24;117.97;;;113.75;;
20486;SDS011;10402;49.012;8.370;2023-12-04T12:49:50;120.30;;;116.03;;
20486;SDS011;10402;49.012;8.370;2023-12-04T12:52:16;124.80;;;120.25;;
20486;SDS011;10402;49.012;8.370;2023-12-04T12:54:43;120.13;;;115.87;;
20486;SDS011;10402;49.012;8.370;2023-12-04T12:57:09;135.30;;;130.45;;
20486;SDS011;10402;49.012;8.370;2023-12-04T12:59:36;134.95;;;130.13;;
20486;SDS011;10402;49.012;8.370;2023-12-04T13:02:04;124.32;;;119.88;;
20486;SDS011;10402;49.012;8.370;2023-12-04T13:04:34;115.22;;;111.13;;
20486;SDS011;10402;49.012;8.370;2023-12-04T13:07:03;105.53;;;101.78;;
20486;SDS011;10402;49.012;8.370;2023-12-04T13:09:31;101.07;;;97.53;;
20486;SDS011;10402;49.012;8.370;2023-12-04T13:12:03;102.00;;;98.45;;
20486;SDS011;10402;49.012;8.370;2023-12-04T13:14:29;99.47;;;96.00;;
20486;SDS011;10402;49.012;8.370;2023-12-04T13:16:55;88.97;;;85.90;;
20486;SDS011;10402;49.012;8.370;2023-12-04T13:19:21;77.40;;;74.73;;
20486;SDS011;10402;49.012;8.370;2023-12-04T13:21:47;81.05;;;78.28;;
20486;SDS011;10402;49.012;8.370;2023-12-04T13:24:13;71.00;;;68.57;;
20486;SDS011;10402;49.012;8.370;2023-12-04T13:26:38;74.17;;;71.67;;
20486;SDS011;10402;49.012;8.370;2023-12-04T13:29:04;58.50;;;56.53;;
20486;SDS011;10402;49.012;8.370;2023-12-04T13:31:31;65.68;;;63.50;;
20486;SDS011;10402;49.012;8.370;2023-12-04T13:33:58;72.82;;;70.35;;
20486;SDS011;10402;49.012;8.370;2023-12-04T13:36:23;71.77;;;69.37;;
20486;SDS011;10402;49.012;8.370;2023-12-04T13:38:49;73.77;;;71.33;;
20486;SDS011;10402;49.012;8.370;2023-12-04T13:41:14;55.60;;;53.80;;
20486;SDS011;10402;49.012;8.370;2023-12-04T13:43:59;45.58;;;44.15;;
20486;SDS011;10402;49.012;8.370;2023-12-04T13:46:25;43.57;;;42.20;;
20486;SDS011;10402;49.012;8.370;2023-12-04T13:48:52;45.05;;;43.63;;
20486;SDS011;10402;49.012;8.370;2023-12-04T13:51:17;46.97;;;45.47;;
20486;SDS011;10402;49.012;8.370;2023-12-04T13:53:44;46.50;;;45.05;;
20486;SDS011;10402;49.012;8.370;2023-12-04T13:56:14;47.40;;;45.90;;
20486;SDS011;10402;49.012;8.370;2023-12-04T13:58:45;50.17;;;48.60;;
20486;SDS011;10402;49.012;8.370;2023-12-04T14:01:11;51.03;;;49.40;;
20486;SDS011;10402;49.012;8.370;2023-12-04T14:03:39;49.70;;;48.13;;
20486;SDS011;10402;49.012;8.370;2023-12-04T14:06:08;51.33;;;49.70;;
20486;SDS011;10402;49.012;8.370;2023-12-04T14:08:34;62.30;;;60.30;;
20486;SDS011;10402;49.012;8.370;2023-12-04T14:11:00;71.20;;;68.88;;
20486;SDS011;10402;49.012;8.370;2023-12-04T14:13:27;81.35;;;78.70;;
20486;SDS011;10402;49.012;8.370;2023-12-04T14:15:52;71.80;;;69.43;;